Big Springs, South Dakota
Current Conditions -  °F | °C
As of 5:35 PM on Wednesday 22 Oct 2014 (Local Time) from KLRJ Reporting Station
Drizzle Drizzle  
Wind Chill: 64°   Ceiling: 4800
Heat Index: 64°   Visibility: 6mi
Dew Point: 61°   Wind: 15mph
Humidity: 88%   Direction: 290°WNW
Pressure: 30"   Gusts: 25mph
Location:  42.9925°N, 96.6362°W
Report Text: KLRJ 222235Z AUTO 29013G22KT 6SM -DZ FEW005 BKN048 OVC065 18/16 A3000 RMK AO2
Loading
Personal Weather Stations






























Interactive Weather Map
Tropical Storm Tracking
New forecast layout! Learn more

10-Day Weather Forecast

Advertisements
Track Severe Weather on mobile